Accueil
METAR-TAF:

METAR-TAF

Aéroports :

Emmonak, Alaska, États-Unis

latitude: 62-47N, longitude: 164-30W, altitude: 4 m

Observation

Le bulletin a été fait il y a 3 heures et 42 minutes, à 18:56 UTC
Vent 6 kt de sud-ouest
Température -18°C
Humidité 92%
Pression 1007 hPa
Visibilité: 16.1 km
Nuages fragmentés à une hauteur de 1900 ft

METAR: PAEM 221856Z AUTO 22006KT 10SM BKN019 M18/M19 A2975 RMK AO2 SLP074 T11781194 FZRANO

Heure: 13:38 (22:38 UTC)


TAF: absent

Observations et prévisions météorologiques de plus de 4000 aéroports (messages METAR et TAF).

Les stations disponibles sont représentées par des disques jaunes et rouges sur la carte.

Passer la souris dessus pour voir le nom de la station.

Cliquer dessus pour voir les observations et prévisions météorologiques.

Pour changer de carte: cliquez sur les boutons verts avec une croix noire pour zoomer, sur le bouton vert avec un tiret pour effectuer un zoom arrière, ou sur les flèches vertes pour les cartes adjacentes.


METAR-TAF: